createdAt,value
2022-10-20T00:04:37.930Z,70.31
2022-10-20T00:09:41.234Z,70.50
2022-10-20T00:14:43.945Z,71.05
2022-10-20T00:19:50.209Z,71.42
2022-10-20T00:24:53.044Z,72.08
2022-10-20T00:29:55.903Z,72.61
2022-10-20T00:34:58.712Z,73.24
2022-10-20T00:40:01.621Z,73.43
2022-10-20T00:45:12.647Z,73.14
2022-10-20T00:50:21.841Z,73.35
2022-10-20T00:55:32.514Z,73.19
2022-10-20T01:00:37.446Z,73.26
2022-10-20T01:05:40.139Z,73.97
2022-10-20T01:11:25.941Z,74.92
2022-10-20T01:16:47.245Z,75.99
2022-10-20T01:21:58.951Z,76.21
2022-10-20T01:27:26.607Z,75.80
2022-10-20T01:32:38.947Z,76.08
2022-10-20T01:37:57.032Z,76.00
2022-10-20T01:43:03.964Z,76.20
2022-10-20T01:48:07.992Z,76.36
2022-10-20T01:53:10.922Z,76.68
2022-10-20T01:58:39.892Z,76.44
2022-10-20T02:03:54.865Z,76.90
2022-10-20T02:09:04.607Z,77.10
2022-10-20T02:14:10.212Z,77.49
2022-10-20T02:19:14.084Z,78.25
2022-10-20T02:24:17.670Z,79.04
2022-10-20T02:29:25.284Z,79.16
2022-10-20T02:34:28.179Z,79.50
2022-10-20T02:39:30.989Z,79.71
2022-10-20T02:44:33.916Z,79.43
2022-10-20T02:49:36.657Z,79.57
2022-10-20T02:54:40.230Z,79.37
2022-10-20T02:59:43.142Z,79.57
2022-10-20T03:04:45.929Z,79.19
2022-10-20T03:09:49.029Z,79.51
2022-10-20T03:14:51.790Z,79.44
2022-10-20T03:19:54.556Z,79.54
2022-10-20T03:24:57.275Z,79.52
2022-10-20T03:30:00.000Z,79.90
2022-10-20T03:35:02.553Z,80.03
2022-10-20T03:40:05.821Z,79.84
2022-10-20T03:45:09.219Z,80.23
2022-10-20T03:50:12.051Z,80.35
2022-10-20T03:55:16.316Z,80.32
2022-10-20T04:00:19.155Z,80.56
2022-10-20T04:05:22.097Z,80.62
2022-10-20T04:10:25.010Z,81.07
2022-10-20T04:15:29.891Z,81.12
2022-10-20T04:20:32.610Z,81.73
2022-10-20T04:25:35.429Z,81.87
2022-10-20T04:30:42.225Z,82.21
2022-10-20T04:35:45.081Z,82.18
2022-10-20T04:40:54.876Z,82.73
2022-10-20T04:46:05.473Z,82.59
2022-10-20T04:51:14.604Z,83.25
2022-10-20T04:56:20.258Z,83.59
2022-10-20T05:01:25.558Z,84.00
2022-10-20T05:06:31.075Z,84.11
2022-10-20T05:11:36.850Z,84.63
2022-10-20T05:16:39.680Z,84.74
2022-10-20T05:26:50.459Z,85.46
2022-10-20T05:31:53.365Z,85.64
2022-10-20T05:36:56.265Z,85.79
2022-10-20T05:41:58.966Z,85.73
2022-10-20T05:47:01.846Z,86.45
2022-10-20T05:52:04.557Z,86.19
2022-10-20T05:57:07.412Z,86.11
2022-10-20T06:02:11.759Z,85.83
2022-10-20T06:07:14.623Z,86.00
2022-10-20T06:12:17.406Z,85.78
2022-10-20T06:17:20.923Z,85.63
2022-10-20T06:22:23.747Z,85.07
2022-10-20T06:27:26.532Z,84.75
2022-10-20T06:32:29.320Z,84.39
2022-10-20T06:37:33.135Z,84.31
2022-10-20T06:42:36.066Z,84.20
2022-10-20T06:47:39.358Z,83.87
2022-10-20T06:52:42.491Z,83.52
2022-10-20T06:57:45.270Z,83.09
2022-10-20T07:02:48.219Z,82.69
2022-10-20T07:07:54.197Z,82.13
2022-10-20T07:12:57.044Z,82.21
2022-10-20T07:17:59.703Z,81.73
2022-10-20T07:23:02.488Z,76.57
2022-10-20T07:28:05.319Z,72.16
2022-10-20T07:33:09.524Z,67.56
2022-10-20T07:38:12.098Z,64.42
2022-10-20T07:43:14.911Z,62.74
2022-10-20T07:48:18.111Z,62.58
2022-10-20T07:53:21.002Z,63.83
2022-10-20T07:58:23.719Z,64.25
2022-10-20T08:03:26.489Z,64.74
2022-10-20T08:08:29.126Z,65.09
2022-10-20T08:13:32.232Z,65.15
2022-10-20T08:18:38.310Z,65.12
2022-10-20T08:23:43.501Z,65.19
2022-10-20T08:28:47.364Z,63.54
2022-10-20T08:33:52.839Z,61.71
2022-10-20T08:39:02.101Z,59.57
2022-10-20T08:44:08.358Z,60.03
2022-10-20T08:49:25.909Z,58.35
2022-10-20T08:54:28.685Z,57.99
2022-10-20T08:59:39.832Z,57.29
2022-10-20T09:04:57.821Z,57.11
2022-10-20T09:10:34.717Z,56.13
2022-10-20T09:15:37.838Z,55.21
2022-10-20T09:20:44.462Z,56.02
2022-10-20T09:25:47.780Z,54.89
2022-10-20T09:30:51.069Z,54.88
2022-10-20T09:35:54.475Z,53.74
2022-10-20T09:41:14.723Z,53.81
2022-10-20T09:46:21.870Z,53.44
2022-10-20T09:51:28.014Z,53.44
2022-10-20T09:56:33.280Z,52.66
2022-10-20T10:01:52.759Z,52.52
2022-10-20T10:06:55.524Z,51.14
2022-10-20T10:12:13.512Z,49.92
2022-10-20T10:17:38.496Z,49.60
2022-10-20T10:22:43.045Z,49.70
2022-10-20T10:28:00.715Z,49.35
2022-10-20T10:33:25.484Z,49.02
2022-10-20T10:38:29.040Z,48.84
2022-10-20T10:43:56.295Z,47.81
2022-10-20T10:49:36.784Z,46.80
2022-10-20T10:54:56.598Z,45.91
2022-10-20T11:00:01.714Z,44.57
2022-10-20T11:05:27.299Z,43.97
2022-10-20T11:10:59.987Z,44.52
2022-10-20T11:16:53.478Z,43.52
2022-10-20T11:22:17.416Z,42.31
2022-10-20T11:27:25.988Z,42.42
2022-10-20T11:37:43.894Z,41.82
2022-10-20T11:43:14.906Z,41.15
2022-10-20T11:48:40.594Z,42.12
2022-10-20T11:54:01.265Z,43.32
2022-10-20T11:59:34.967Z,45.32
2022-10-20T12:05:08.856Z,46.31
2022-10-20T12:10:43.311Z,46.15
2022-10-20T12:15:55.215Z,47.17
2022-10-20T12:21:05.616Z,48.02
2022-10-20T12:26:30.644Z,49.48
2022-10-20T12:32:20.907Z,49.65
2022-10-20T12:37:23.875Z,49.45
2022-10-20T12:42:29.488Z,48.56
2022-10-20T12:47:35.022Z,48.91
2022-10-20T12:52:40.401Z,49.10
2022-10-20T12:57:45.075Z,49.59
2022-10-20T13:02:58.635Z,48.81
2022-10-20T13:08:16.165Z,49.56
2022-10-20T13:13:18.906Z,49.18
2022-10-20T13:18:22.872Z,49.45
2022-10-20T13:23:50.181Z,49.64
2022-10-20T13:28:55.395Z,49.78
2022-10-20T13:34:16.512Z,49.43
2022-10-20T13:39:35.836Z,49.70
2022-10-20T13:44:49.508Z,49.56
2022-10-20T13:50:13.482Z,50.00
2022-10-20T13:55:25.139Z,49.95
2022-10-20T14:00:31.059Z,50.27
2022-10-20T14:05:38.930Z,49.30
2022-10-20T14:11:04.718Z,49.20
2022-10-20T14:16:18.483Z,49.41
2022-10-20T14:21:21.356Z,49.25
2022-10-20T14:26:25.012Z,49.69
2022-10-20T14:31:28.303Z,49.76
2022-10-20T14:36:31.329Z,49.44
2022-10-20T14:41:35.584Z,49.92
2022-10-20T14:46:40.907Z,50.35
2022-10-20T14:51:54.005Z,50.53
2022-10-20T14:57:02.393Z,51.17
2022-10-20T15:02:09.956Z,51.70
2022-10-20T15:07:33.521Z,52.16
2022-10-20T15:12:36.755Z,53.24
2022-10-20T15:17:42.896Z,54.16
2022-10-20T15:22:45.824Z,54.99
2022-10-20T15:27:48.569Z,55.90
2022-10-20T15:32:52.300Z,57.08
2022-10-20T15:37:56.414Z,57.08
2022-10-20T15:42:59.171Z,58.22
2022-10-20T15:48:02.025Z,58.56
2022-10-20T15:53:05.474Z,59.30
2022-10-20T15:58:08.386Z,59.79
2022-10-20T16:03:17.573Z,60.63
2022-10-20T16:08:20.317Z,61.67
2022-10-20T16:13:23.227Z,62.14
2022-10-20T16:18:26.215Z,62.65
2022-10-20T16:23:29.016Z,63.12
2022-10-20T16:28:31.991Z,63.38
2022-10-20T16:33:35.399Z,63.97
2022-10-20T16:38:40.198Z,64.25
2022-10-20T16:43:45.471Z,64.69
2022-10-20T16:48:48.521Z,65.39
2022-10-20T16:53:51.307Z,66.00
2022-10-20T16:58:54.054Z,66.25
2022-10-20T17:03:56.919Z,66.84
2022-10-20T17:09:00.087Z,67.27
2022-10-20T17:14:05.064Z,67.27
2022-10-20T17:19:08.126Z,67.16
2022-10-20T17:24:14.558Z,67.58
2022-10-20T17:29:20.071Z,67.87
2022-10-20T17:34:24.830Z,67.90
2022-10-20T17:39:28.596Z,68.30
2022-10-20T17:44:31.406Z,68.84
2022-10-20T17:49:34.178Z,69.48
2022-10-20T17:54:37.053Z,69.79
2022-10-20T17:59:52.146Z,70.75
2022-10-20T18:04:57.547Z,70.81
2022-10-20T18:10:00.362Z,71.24
2022-10-20T18:15:04.150Z,72.02
2022-10-20T18:20:07.248Z,72.78
2022-10-20T18:25:10.053Z,73.33
2022-10-20T18:30:12.763Z,73.90
2022-10-20T18:35:15.732Z,74.47
2022-10-20T18:40:18.627Z,74.89
2022-10-20T18:45:23.844Z,75.04
2022-10-20T18:50:28.751Z,75.55
2022-10-20T18:55:31.561Z,75.42
2022-10-20T19:00:34.351Z,75.25
2022-10-20T19:05:38.925Z,75.54
2022-10-20T19:10:44.066Z,75.94
2022-10-20T19:15:47.920Z,76.18
2022-10-20T19:21:02.056Z,76.87
2022-10-20T19:26:18.456Z,77.12
2022-10-20T19:31:43.702Z,77.71
2022-10-20T19:36:47.314Z,78.23
2022-10-20T19:41:50.285Z,78.28
2022-10-20T19:46:53.399Z,78.59
2022-10-20T19:51:56.420Z,78.52
2022-10-20T19:56:59.451Z,78.75
2022-10-20T20:02:02.636Z,79.09
2022-10-20T20:07:05.590Z,79.29
2022-10-20T20:12:08.924Z,79.66
2022-10-20T20:17:11.886Z,79.73
2022-10-20T20:22:14.638Z,80.18
2022-10-20T20:27:17.444Z,80.57
2022-10-20T20:32:20.480Z,80.67
2022-10-20T20:37:23.543Z,81.13
2022-10-20T20:42:26.422Z,81.37
2022-10-20T20:47:33.120Z,81.62
2022-10-20T20:52:35.910Z,81.93
2022-10-20T20:57:39.010Z,81.94
2022-10-20T21:02:44.515Z,82.14
2022-10-20T21:07:47.285Z,82.28
2022-10-20T21:12:49.993Z,82.44
2022-10-20T21:17:52.952Z,82.67
2022-10-20T21:22:55.885Z,83.02
2022-10-20T21:27:58.603Z,82.95
2022-10-20T21:33:01.347Z,83.35
2022-10-20T21:38:04.218Z,83.38
2022-10-20T21:43:10.439Z,83.69
2022-10-20T21:48:13.414Z,84.06
2022-10-20T21:53:17.312Z,84.09
2022-10-20T21:58:20.084Z,84.49
2022-10-20T22:03:23.285Z,84.62
2022-10-20T22:08:26.266Z,84.67
2022-10-20T22:13:28.992Z,84.67
2022-10-20T22:18:31.794Z,84.63
2022-10-20T22:23:34.632Z,84.93
2022-10-20T22:28:38.245Z,84.91
2022-10-20T22:33:41.141Z,84.66
2022-10-20T22:38:44.028Z,84.69
2022-10-20T22:43:46.778Z,84.92
2022-10-20T22:48:50.004Z,85.07
2022-10-20T22:53:52.771Z,85.13
2022-10-20T22:58:55.601Z,85.35
2022-10-20T23:03:58.452Z,85.61
2022-10-20T23:09:01.327Z,85.53
2022-10-20T23:14:04.128Z,85.74
2022-10-20T23:19:07.079Z,85.61
2022-10-20T23:24:09.870Z,85.50
2022-10-20T23:29:12.696Z,85.67
2022-10-20T23:34:15.423Z,85.85
2022-10-20T23:39:18.439Z,86.14
2022-10-20T23:44:21.177Z,86.19
2022-10-20T23:49:23.981Z,86.67
2022-10-20T23:54:26.810Z,86.85
2022-10-20T23:59:29.593Z,87.03
